Time;durP1;ratioP1;P1;durP2;ratioP2;P2;SDS_P1;SDS_P2;PMS_P1;PMS_P2;Temp;Humidity;BMP_temperature;BMP_pressure;BME280_temperature;BME280_humidity;BME280_pressure;Samples;Min_cycle;Max_cycle;Signal;HPM_P1;HPM_P2
2023/04/27 00:01:48;;;;;;;8.18;5.57;;;;;;;4.50;78.90;102020.25;5054699;28;20033;-82
2023/04/27 00:04:15;;;;;;;8.18;5.40;;;;;;;4.45;79.19;102017.75;5055749;28;20052;-81
2023/04/27 00:06:41;;;;;;;7.93;4.97;;;;;;;4.44;79.44;102018.66;5058111;28;20032;-82
2023/04/27 00:09:06;;;;;;;11.43;4.93;;;;;;;4.42;79.75;102019.63;5066055;28;20029;-81
2023/04/27 00:11:32;;;;;;;9.30;5.07;;;;;;;4.37;79.04;102019.78;5052757;28;20033;-82
2023/04/27 00:13:57;;;;;;;6.63;5.25;;;;;;;4.34;79.09;102017.22;5065176;28;20024;-82
2023/04/27 00:16:22;;;;;;;6.53;4.88;;;;;;;4.31;78.89;102014.69;5065265;28;20029;-81
2023/04/27 00:18:48;;;;;;;7.78;5.00;;;;;;;4.30;79.32;102020.00;5059957;28;20458;-81
2023/04/27 00:21:13;;;;;;;7.75;5.30;;;;;;;4.26;79.65;102016.63;5051490;28;20036;-81
2023/04/27 00:23:38;;;;;;;8.98;5.05;;;;;;;4.19;79.12;102023.84;5061432;28;20454;-82
2023/04/27 00:26:04;;;;;;;7.32;5.82;;;;;;;4.17;80.31;102019.53;5061884;28;20375;-82
2023/04/27 00:28:29;;;;;;;9.25;5.38;;;;;;;4.14;80.49;102019.63;5061102;28;20091;-82
2023/04/27 00:30:55;;;;;;;8.85;5.38;;;;;;;4.06;80.61;102025.13;5060476;28;20028;-81
2023/04/27 00:33:20;;;;;;;5.60;4.90;;;;;;;4.01;80.14;102027.91;5058025;28;20021;-82
2023/04/27 00:35:45;;;;;;;9.70;5.25;;;;;;;3.99;80.95;102023.59;5058034;28;20041;-82
2023/04/27 00:38:11;;;;;;;9.90;5.55;;;;;;;3.96;80.56;102021.91;5057306;28;20029;-81
2023/04/27 00:40:37;;;;;;;8.25;5.78;;;;;;;3.92;80.79;102028.16;5059285;28;20025;-82
2023/04/27 00:43:02;;;;;;;9.48;5.57;;;;;;;3.89;81.35;102013.34;5059688;28;20033;-82
2023/04/27 00:45:28;;;;;;;10.15;5.43;;;;;;;3.91;81.76;102015.91;5060244;28;20075;-81
2023/04/27 00:47:54;;;;;;;9.98;5.80;;;;;;;3.86;81.78;102013.47;5060250;28;20033;-82
2023/04/27 00:50:27;;;;;;;7.45;5.63;;;;;;;3.85;82.50;102014.34;5060865;28;20025;-82
2023/04/27 00:52:52;;;;;;;10.52;5.82;;;;;;;3.83;82.22;102015.28;5051014;28;20029;-82
2023/04/27 00:55:18;;;;;;;7.68;5.85;;;;;;;3.82;81.60;102014.44;5057647;28;20040;-82
2023/04/27 00:57:45;;;;;;;8.57;5.35;;;;;;;3.77;82.12;102016.34;5059406;28;20599;-82
2023/04/27 01:00:12;;;;;;;9.52;5.80;;;;;;;3.73;81.93;102019.97;5058582;28;20087;-82
2023/04/27 01:02:38;;;;;;;15.32;8.18;;;;;;;3.69;81.26;102018.31;5061837;28;20116;-81
2023/04/27 01:05:04;;;;;;;19.63;10.82;;;;;;;3.64;81.85;102023.72;5061546;28;20025;-82
2023/04/27 01:07:30;;;;;;;15.40;8.75;;;;;;;3.65;82.04;102024.59;5062255;28;20112;-82
2023/04/27 01:09:55;;;;;;;15.30;8.85;;;;;;;3.62;82.55;102017.66;5062092;28;20032;-81
2023/04/27 01:12:20;;;;;;;13.02;7.13;;;;;;;3.62;82.57;102016.78;5054178;28;20035;-81
2023/04/27 01:14:46;;;;;;;10.80;6.93;;;;;;;3.62;82.42;102019.41;5056539;28;20029;-81
2023/04/27 01:17:11;;;;;;;8.85;6.10;;;;;;;3.60;82.75;102019.47;5063084;28;20406;-81
2023/04/27 01:19:37;;;;;;;7.78;5.65;;;;;;;3.57;83.14;102018.69;5054480;28;20028;-82
2023/04/27 01:22:02;;;;;;;10.55;5.95;;;;;;;3.54;83.50;102024.88;5063287;28;20059;-82
2023/04/27 01:24:27;;;;;;;7.43;5.70;;;;;;;3.55;83.20;102033.63;5048549;28;20033;-82
2023/04/27 01:26:52;;;;;;;8.45;5.65;;;;;;;3.51;83.13;102023.22;5061611;28;20391;-81
2023/04/27 01:29:18;;;;;;;10.60;5.70;;;;;;;3.49;82.72;102030.25;5063545;28;20087;-82
2023/04/27 01:31:44;;;;;;;13.25;8.20;;;;;;;3.47;82.88;102024.19;5065687;28;20052;-82
2023/04/27 01:34:09;;;;;;;22.42;15.23;;;;;;;3.48;83.28;102025.94;5079208;28;20021;-81
2023/04/27 01:36:35;;;;;;;24.48;17.67;;;;;;;3.44;83.38;102024.28;5075657;28;20032;-82
2023/04/27 01:39:00;;;;;;;25.02;17.65;;;;;;;3.41;83.58;102019.09;5064456;28;20025;-82
2023/04/27 01:41:25;;;;;;;11.48;9.07;;;;;;;3.38;83.73;102021.84;5063689;28;20029;-81
2023/04/27 01:43:51;;;;;;;12.68;7.93;;;;;;;3.32;83.08;102020.22;5066958;28;20032;-81
2023/04/27 01:46:16;;;;;;;11.02;6.03;;;;;;;3.31;83.88;102015.91;5063724;28;20085;-81
2023/04/27 01:48:41;;;;;;;11.50;5.85;;;;;;;3.29;84.44;102017.69;5057128;28;20477;-81
2023/04/27 01:51:07;;;;;;;9.23;6.40;;;;;;;3.28;84.86;102015.09;5062941;28;20037;-82
2023/04/27 01:53:33;;;;;;;8.52;6.15;;;;;;;3.28;84.59;102015.09;5062670;28;20060;-82
2023/04/27 01:55:59;;;;;;;10.70;6.47;;;;;;;3.24;84.71;102008.22;5061216;28;20021;-81
2023/04/27 01:58:24;;;;;;;9.77;6.07;;;;;;;3.21;84.55;102005.66;5061893;28;20041;-81
2023/04/27 02:00:50;;;;;;;8.55;6.18;;;;;;;3.16;84.62;102003.16;5055180;28;20388;-81
2023/04/27 02:03:15;;;;;;;6.70;5.85;;;;;;;3.14;84.53;102015.47;5062975;28;20029;-82
2023/04/27 02:05:41;;;;;;;11.00;6.63;;;;;;;3.14;85.17;102011.06;5063587;28;20044;-82
2023/04/27 02:08:06;;;;;;;10.38;6.38;;;;;;;3.11;85.24;102003.31;5072469;28;20041;-81
2023/04/27 02:10:32;;;;;;;9.15;5.80;;;;;;;3.09;84.92;102001.59;5068046;28;20499;-81
2023/04/27 02:12:57;;;;;;;8.13;6.18;;;;;;;3.06;84.93;102005.16;5066836;28;20032;-81
2023/04/27 02:15:22;;;;;;;8.40;5.82;;;;;;;3.06;85.39;102009.56;5074158;28;20036;-81
2023/04/27 02:17:48;;;;;;;11.48;6.00;;;;;;;3.02;85.42;101997.44;5072727;28;20025;-81
2023/04/27 02:20:13;;;;;;;10.95;6.35;;;;;;;3.03;85.77;102000.03;5066962;28;20044;-81
2023/04/27 02:22:43;;;;;;;15.18;6.70;;;;;;;3.02;85.75;102003.53;5062119;28;20032;-82
2023/04/27 02:25:10;;;;;;;8.55;6.00;;;;;;;2.97;85.58;101997.56;5060837;28;20028;-81
2023/04/27 02:27:40;;;;;;;7.47;6.15;;;;;;;2.93;85.42;101988.00;5060744;28;20025;-81
2023/04/27 02:30:07;;;;;;;9.65;6.13;;;;;;;2.92;86.59;101986.31;5062145;28;20036;-81
2023/04/27 02:32:32;;;;;;;9.77;6.60;;;;;;;2.88;85.97;101982.91;5061245;28;20041;-82
2023/04/27 02:34:58;;;;;;;8.82;6.00;;;;;;;2.87;86.34;101991.69;5061312;28;20078;-81
2023/04/27 02:37:23;;;;;;;10.07;6.63;;;;;;;2.85;86.89;101987.34;5055578;28;20099;-81
2023/04/27 02:39:49;;;;;;;9.90;6.45;;;;;;;2.84;86.12;101988.28;5055602;28;20033;-81
2023/04/27 02:42:15;;;;;;;8.48;6.55;;;;;;;2.84;86.95;101978.63;5055466;28;20029;-81
2023/04/27 02:44:40;;;;;;;11.05;6.35;;;;;;;2.80;86.53;101986.63;5057199;28;20021;-81
2023/04/27 02:47:05;;;;;;;9.50;6.97;;;;;;;2.77;86.98;101980.56;5057171;28;20026;-81
2023/04/27 02:49:31;;;;;;;12.77;6.70;;;;;;;2.75;86.90;101984.13;5052237;28;20048;-81
2023/04/27 02:51:56;;;;;;;8.52;6.57;;;;;;;2.72;87.21;101989.44;5042379;28;20032;-81
2023/04/27 02:54:21;;;;;;;14.73;6.60;;;;;;;2.72;87.32;101990.31;5048141;28;20070;-81
2023/04/27 02:56:46;;;;;;;9.27;7.00;;;;;;;2.71;87.41;101995.59;5057908;28;20025;-81
2023/04/27 02:59:12;;;;;;;9.45;6.90;;;;;;;2.71;87.23;101992.97;5058681;28;20112;-81
2023/04/27 03:01:37;;;;;;;12.95;6.90;;;;;;;2.69;87.53;101984.28;5052064;28;20025;-81
2023/04/27 03:04:02;;;;;;;8.38;6.63;;;;;;;2.70;87.57;101984.25;5058686;28;20036;-81
2023/04/27 03:06:28;;;;;;;10.82;7.10;;;;;;;2.70;87.84;101984.25;5058982;28;20033;-81
2023/04/27 03:08:54;;;;;;;11.95;7.60;;;;;;;2.66;88.01;101969.47;5059558;28;20044;-81
2023/04/27 03:11:19;;;;;;;12.95;7.10;;;;;;;2.68;88.31;101983.44;5059791;28;20029;-81
2023/04/27 03:13:45;;;;;;;15.13;7.50;;;;;;;2.67;87.99;101971.19;5059821;28;20025;-82
2023/04/27 03:16:10;;;;;;;12.40;7.47;;;;;;;2.65;87.91;101986.13;5059850;28;20065;-82
2023/04/27 03:18:36;;;;;;;11.07;7.53;;;;;;;2.62;88.43;101982.72;5059953;28;20029;-81
2023/04/27 03:21:05;;;;;;;8.55;7.05;;;;;;;2.63;88.95;101998.41;5060810;28;20036;-81
2023/04/27 03:23:31;;;;;;;13.05;7.47;;;;;;;2.62;88.64;101991.44;5046133;28;20018;-81
2023/04/27 03:25:56;;;;;;;13.82;7.50;;;;;;;2.58;87.70;101990.66;5058836;28;20465;-81
2023/04/27 03:28:21;;;;;;;13.35;7.45;;;;;;;2.58;88.60;101989.78;5061789;28;20115;-81
2023/04/27 03:30:47;;;;;;;14.40;7.68;;;;;;;2.54;88.40;101985.53;5060860;28;20048;-82
2023/04/27 03:33:13;;;;;;;12.15;7.35;;;;;;;2.53;88.88;101992.53;5060469;28;20379;-81
2023/04/27 03:35:38;;;;;;;10.75;7.30;;;;;;;2.51;89.18;101994.31;5061329;28;20082;-81
2023/04/27 03:38:03;;;;;;;10.88;7.75;;;;;;;2.52;89.14;102005.69;5061131;28;20032;-82
2023/04/27 03:40:28;;;;;;;14.02;7.53;;;;;;;2.50;88.68;102000.47;5060713;28;20464;-81
2023/04/27 03:42:54;;;;;;;10.70;7.45;;;;;;;2.48;89.53;102007.53;5060219;28;20049;-82
2023/04/27 03:45:21;;;;;;;11.35;8.30;;;;;;;2.48;89.29;102001.41;5050445;28;20471;-82
2023/04/27 03:47:46;;;;;;;12.32;7.72;;;;;;;2.47;89.59;101999.69;5060352;28;20040;-81
2023/04/27 03:50:11;;;;;;;11.38;7.43;;;;;;;2.43;88.69;102004.13;5053534;28;20017;-82
2023/04/27 03:52:37;;;;;;;15.05;7.38;;;;;;;2.45;89.45;102007.59;5060765;28;20037;-82
2023/04/27 03:55:02;;;;;;;12.35;7.97;;;;;;;2.43;89.91;101998.88;5059532;28;20493;-82
2023/04/27 03:57:27;;;;;;;11.77;8.07;;;;;;;2.40;90.03;102001.59;5060776;28;20021;-81
2023/04/27 03:59:53;;;;;;;10.35;7.68;;;;;;;2.38;90.68;102000.75;5060775;28;20025;-81
2023/04/27 04:02:18;;;;;;;11.35;7.57;;;;;;;2.40;89.99;102006.84;5050939;28;20055;-82
2023/04/27 04:04:43;;;;;;;11.45;7.97;;;;;;;2.36;90.11;102003.41;5050816;28;20085;-81
2023/04/27 04:07:08;;;;;;;13.48;7.88;;;;;;;2.38;90.07;102006.88;5060339;28;20063;-81
2023/04/27 04:09:34;;;;;;;13.18;8.05;;;;;;;2.37;89.98;102010.38;5059645;28;20071;-81
2023/04/27 04:11:59;;;;;;;11.02;7.40;;;;;;;2.37;89.63;102002.53;5059687;28;20033;-81
2023/04/27 04:14:26;;;;;;;15.48;7.50;;;;;;;2.36;89.73;102008.66;5059994;28;20055;-81
2023/04/27 04:16:51;;;;;;;11.93;7.35;;;;;;;2.36;89.55;102008.66;5047577;28;20258;-81
2023/04/27 04:19:16;;;;;;;10.68;7.65;;;;;;;2.36;89.81;102013.91;5053958;28;20053;-81
2023/04/27 04:21:41;;;;;;;14.38;8.00;;;;;;;2.35;89.53;102016.56;5059567;28;20071;-81
2023/04/27 04:24:07;;;;;;;15.50;8.13;;;;;;;2.35;89.51;102013.97;5056755;28;20059;-81
2023/04/27 04:26:32;;;;;;;14.35;8.15;;;;;;;2.33;89.78;102014.00;5060553;28;20036;-81
2023/04/27 04:28:57;;;;;;;13.40;8.15;;;;;;;2.31;89.46;102015.75;5060175;28;20029;-82
2023/04/27 04:31:23;;;;;;;12.57;8.27;;;;;;;2.28;89.25;102018.47;5054925;28;20084;-82
2023/04/27 04:33:48;;;;;;;12.93;8.65;;;;;;;2.27;89.72;102024.59;5045107;28;20017;-81
2023/04/27 04:36:14;;;;;;;13.73;8.38;;;;;;;2.22;90.29;102021.22;5060074;28;20051;-81
2023/04/27 04:38:39;;;;;;;13.27;8.45;;;;;;;2.19;90.62;102021.31;5060820;28;20428;-81
2023/04/27 04:41:04;;;;;;;12.43;7.70;;;;;;;2.21;90.16;102030.88;5062881;28;20064;-81
2023/04/27 04:43:30;;;;;;;11.68;8.23;;;;;;;2.21;90.71;102035.22;5065441;28;20021;-81
2023/04/27 04:45:55;;;;;;;13.10;7.82;;;;;;;2.19;90.20;102039.66;5060592;28;20064;-81
2023/04/27 04:48:21;;;;;;;11.25;8.00;;;;;;;2.20;90.79;102044.84;5060497;28;20518;-81
2023/04/27 04:50:46;;;;;;;14.10;7.95;;;;;;;2.21;90.54;102045.72;5059311;28;20021;-81
2023/04/27 04:53:11;;;;;;;11.10;8.32;;;;;;;2.25;90.48;102041.25;5054954;28;20034;-82
2023/04/27 04:55:37;;;;;;;12.07;8.48;;;;;;;2.25;90.28;102033.38;5059736;28;20482;-81
2023/04/27 04:58:02;;;;;;;11.63;8.32;;;;;;;2.27;90.31;102042.09;5063641;28;20482;-81
2023/04/27 05:00:27;;;;;;;12.38;8.30;;;;;;;2.28;90.98;102042.06;5064403;28;20037;-82
2023/04/27 05:02:53;;;;;;;13.68;8.07;;;;;;;2.30;90.65;102042.91;5064009;28;20283;-82
2023/04/27 05:05:18;;;;;;;11.43;7.53;;;;;;;2.33;90.95;102044.56;5057998;28;20017;-82
2023/04/27 05:07:43;;;;;;;14.43;8.80;;;;;;;2.37;90.73;102036.59;5058037;28;20064;-82
2023/04/27 05:10:09;;;;;;;13.90;8.55;;;;;;;2.43;90.99;102046.06;5061665;28;20036;-82
2023/04/27 05:12:34;;;;;;;13.00;8.13;;;;;;;2.48;91.20;102043.34;5064022;28;20040;-82
2023/04/27 05:14:59;;;;;;;13.95;8.15;;;;;;;2.54;90.99;102041.44;5064438;28;20414;-82
2023/04/27 05:17:25;;;;;;;14.00;8.73;;;;;;;2.59;90.67;102044.81;5071952;28;20081;-82
2023/04/27 05:19:50;;;;;;;11.90;7.80;;;;;;;2.65;90.21;102046.44;5073864;28;20046;-82
2023/04/27 05:22:16;;;;;;;11.60;8.10;;;;;;;2.72;90.02;102044.53;5065415;28;20084;-82
2023/04/27 05:24:41;;;;;;;13.20;8.32;;;;;;;2.82;90.09;102047.81;5069940;28;20053;-82
2023/04/27 05:27:06;;;;;;;13.20;7.85;;;;;;;2.86;90.28;102054.69;5068713;28;20033;-82
2023/04/27 05:29:32;;;;;;;14.18;8.38;;;;;;;2.96;89.65;102051.81;5064788;28;20033;-82
2023/04/27 05:31:57;;;;;;;11.02;8.10;;;;;;;3.01;89.68;102043.78;5062857;28;20032;-82
2023/04/27 05:34:23;;;;;;;12.77;7.90;;;;;;;3.11;89.32;102047.94;5062905;28;20059;-82
2023/04/27 05:36:48;;;;;;;11.23;7.63;;;;;;;3.15;89.08;102049.56;5062019;28;20032;-82
2023/04/27 05:39:14;;;;;;;12.98;8.30;;;;;;;3.21;88.88;102056.41;5063262;28;20033;-82
2023/04/27 05:41:39;;;;;;;9.63;7.78;;;;;;;3.29;88.47;102053.59;5063628;28;20068;-82
2023/04/27 05:44:05;;;;;;;12.48;8.52;;;;;;;3.33;88.74;102063.97;5070752;28;20033;-82
2023/04/27 05:46:31;;;;;;;13.27;8.50;;;;;;;3.36;88.20;102055.13;5079629;28;20024;-83
2023/04/27 05:48:56;;;;;;;13.02;8.15;;;;;;;3.39;87.80;102056.81;5069923;28;20033;-82
2023/04/27 05:51:21;;;;;;;17.20;8.63;;;;;;;3.43;87.89;102063.72;5065340;28;20021;-82
2023/04/27 05:53:47;;;;;;;13.00;8.85;;;;;;;3.46;88.22;102058.38;5064481;28;20029;-83
2023/04/27 05:56:12;;;;;;;14.70;8.48;;;;;;;3.52;87.98;102063.47;5063685;28;20025;-83
2023/04/27 05:58:37;;;;;;;14.60;8.68;;;;;;;3.57;87.80;102066.84;5062213;28;20033;-83
2023/04/27 06:01:03;;;;;;;12.57;7.68;;;;;;;3.60;86.48;102061.50;5062236;28;20029;-83
2023/04/27 06:03:29;;;;;;;11.80;7.65;;;;;;;3.67;86.64;102070.06;5063934;28;20037;-83
2023/04/27 06:05:56;;;;;;;15.70;7.53;;;;;;;3.72;86.86;102068.16;5073174;28;20029;-82
2023/04/27 06:08:22;;;;;;;11.23;7.05;;;;;;;3.77;86.33;102063.63;5072104;28;20037;-82
2023/04/27 06:10:48;;;;;;;13.93;7.32;;;;;;;3.83;85.80;102068.72;5058009;28;20036;-82
2023/04/27 06:13:14;;;;;;;12.70;7.97;;;;;;;3.88;85.21;102069.47;5058247;28;20090;-82
2023/04/27 06:15:39;;;;;;;10.27;6.90;;;;;;;3.94;84.39;102064.94;5065076;28;20025;-82
2023/04/27 06:18:05;;;;;;;10.15;7.43;;;;;;;3.99;85.20;102061.25;5065896;28;20036;-82
2023/04/27 06:20:30;;;;;;;13.38;7.20;;;;;;;4.07;84.36;102055.78;5062656;28;20032;-83
2023/04/27 06:22:57;;;;;;;14.00;8.30;;;;;;;4.15;84.58;102052.91;5064161;28;20053;-83
2023/04/27 06:25:22;;;;;;;11.93;6.85;;;;;;;4.23;84.27;102054.41;5054511;28;20045;-83
2023/04/27 06:27:47;;;;;;;12.82;7.03;;;;;;;4.33;84.07;102057.63;5065297;28;20102;-83
2023/04/27 06:30:13;;;;;;;12.43;7.30;;;;;;;4.41;84.17;102052.97;5067635;28;20036;-83
2023/04/27 06:32:38;;;;;;;11.95;7.18;;;;;;;4.51;83.63;102047.41;5058262;28;20021;-82
2023/04/27 06:35:04;;;;;;;15.52;7.00;;;;;;;4.63;81.92;102055.78;5061091;28;20099;-83
2023/04/27 06:37:30;;;;;;;11.23;6.90;;;;;;;4.71;81.74;102055.50;5059220;28;20038;-83
2023/04/27 06:39:55;;;;;;;14.00;6.90;;;;;;;4.81;81.72;102067.50;5062455;28;20037;-83
2023/04/27 06:42:21;;;;;;;11.57;6.90;;;;;;;4.91;81.77;102061.91;5061367;28;20062;-83
2023/04/27 06:44:46;;;;;;;23.15;12.63;;;;;;;5.00;80.71;102062.47;5059152;28;20071;-83
2023/04/27 06:47:12;;;;;;;13.27;8.45;;;;;;;5.09;80.63;102066.53;5056890;28;20511;-83
2023/04/27 06:49:37;;;;;;;12.40;7.93;;;;;;;5.18;80.71;102058.34;5059551;28;20371;-83
2023/04/27 06:52:04;;;;;;;12.55;7.45;;;;;;;5.29;79.78;102063.22;5067846;28;20041;-83
2023/04/27 06:54:30;;;;;;;9.50;7.43;;;;;;;5.46;80.51;102053.88;5069143;28;20032;-83
2023/04/27 06:56:56;;;;;;;14.75;8.27;;;;;;;5.60;79.27;102053.41;5065584;28;20032;-83
2023/04/27 06:59:22;;;;;;;13.27;7.93;;;;;;;5.77;78.93;102051.00;5060429;28;20033;-84
2023/04/27 07:01:47;;;;;;;19.88;13.93;;;;;;;5.97;77.75;102050.28;5063491;28;20120;-83
2023/04/27 07:04:13;;;;;;;17.90;11.43;;;;;;;6.14;76.67;102046.97;5061585;28;20033;-83
2023/04/27 07:06:38;;;;;;;14.50;10.30;;;;;;;6.36;76.73;102051.41;5071702;28;20041;-83
2023/04/27 07:09:06;;;;;;;17.15;11.38;;;;;;;6.60;76.63;102042.53;5071259;28;20044;-83
2023/04/27 07:11:32;;;;;;;18.90;12.83;;;;;;;6.87;75.68;102044.09;5065130;28;20040;-83
2023/04/27 07:13:57;;;;;;;17.40;11.20;;;;;;;7.09;74.82;102036.97;5072322;28;20009;-83
2023/04/27 07:16:22;;;;;;;12.07;8.93;;;;;;;7.29;73.31;102036.09;5072716;28;20115;-83
2023/04/27 07:18:47;;;;;;;14.43;7.93;;;;;;;7.56;72.36;102041.97;5070671;28;20047;-83
2023/04/27 07:21:13;;;;;;;16.13;8.48;;;;;;;7.79;71.23;102034.78;5066371;28;20051;-84
2023/04/27 07:23:40;;;;;;;16.38;8.02;;;;;;;8.01;70.42;102036.44;5073565;28;20025;-83
2023/04/27 07:26:06;;;;;;;10.57;7.88;;;;;;;8.27;69.62;102046.63;5061705;28;20049;-83
2023/04/27 07:28:31;;;;;;;14.60;7.95;;;;;;;8.48;68.16;102046.59;5062109;28;20025;-83
2023/04/27 07:30:57;;;;;;;11.98;7.70;;;;;;;8.66;67.64;102043.03;5065503;28;20136;-83
2023/04/27 07:33:22;;;;;;;12.45;8.25;;;;;;;8.88;66.03;102047.28;5063054;28;20033;-84
2023/04/27 07:35:49;;;;;;;10.18;7.97;;;;;;;9.08;65.06;102048.91;5059563;28;20036;-84
2023/04/27 07:38:16;;;;;;;11.68;7.72;;;;;;;9.40;66.70;102038.44;5059298;28;20044;-84
2023/04/27 07:40:41;;;;;;;12.50;7.97;;;;;;;9.62;63.43;102041.66;5062670;28;20048;-84
2023/04/27 07:43:08;;;;;;;15.27;7.90;;;;;;;9.71;62.14;102047.41;5065060;28;20758;-83
2023/04/27 07:45:37;;;;;;;15.93;7.57;;;;;;;9.75;61.36;102048.97;5062231;28;20040;-84
2023/04/27 07:48:04;;;;;;;12.52;7.65;;;;;;;9.91;61.22;102041.00;5058079;28;20402;-84
2023/04/27 07:50:30;;;;;;;16.42;8.10;;;;;;;9.98;59.71;102039.75;5052081;28;20021;-84
2023/04/27 07:52:59;;;;;;;11.15;7.07;;;;;;;9.93;59.18;102041.81;5055261;28;20032;-84
2023/04/27 07:55:25;;;;;;;11.23;7.30;;;;;;;10.07;60.27;102041.03;5048205;28;20051;-84
2023/04/27 07:57:56;;;;;;;10.18;7.20;;;;;;;10.17;59.97;102037.81;5055189;28;20048;-85
2023/04/27 08:00:24;;;;;;;9.35;6.82;;;;;;;10.25;58.61;102034.69;5057645;28;20071;-83
2023/04/27 08:02:51;;;;;;;13.98;7.35;;;;;;;10.29;57.85;102035.38;5051522;28;20440;-84
2023/04/27 08:05:17;;;;;;;13.48;7.25;;;;;;;10.35;56.94;102033.28;5046744;28;20061;-85
2023/04/27 08:07:42;;;;;;;10.70;6.68;;;;;;;10.44;56.88;102029.25;5053090;28;20075;-85
2023/04/27 08:10:08;;;;;;;10.65;6.25;;;;;;;10.65;56.58;102032.47;5051172;28;20025;-84
2023/04/27 08:12:33;;;;;;;10.82;6.30;;;;;;;10.82;55.57;102036.78;5052261;28;20529;-85
2023/04/27 08:14:59;;;;;;;9.15;6.72;;;;;;;11.08;54.50;102031.75;5052086;28;20044;-84
2023/04/27 08:17:24;;;;;;;13.52;6.70;;;;;;;11.26;54.89;102033.28;5053063;28;20044;-84
2023/04/27 08:19:50;;;;;;;11.13;6.47;;;;;;;11.46;54.02;102037.41;5055155;28;20383;-85
2023/04/27 08:22:15;;;;;;;11.15;7.55;;;;;;;11.71;53.64;102041.22;5050503;28;20073;-84
2023/04/27 08:24:40;;;;;;;8.63;6.07;;;;;;;11.96;52.15;102032.56;5054724;28;21316;-84
2023/04/27 08:27:06;;;;;;;10.63;6.50;;;;;;;12.12;51.13;102024.44;5055628;28;20510;-84
2023/04/27 08:29:31;;;;;;;9.10;6.05;;;;;;;12.40;52.22;102025.31;5072207;28;20097;-85
2023/04/27 08:31:59;;;;;;;9.52;6.05;;;;;;;12.59;49.86;102009.84;5080616;28;20041;-86
2023/04/27 08:34:25;;;;;;;8.90;5.50;;;;;;;12.73;49.42;102003.56;5067293;28;20413;-84
2023/04/27 08:36:51;;;;;;;9.00;6.32;;;;;;;12.80;48.83;102004.00;5078933;28;20065;-86
2023/04/27 08:39:17;;;;;;;8.60;5.97;;;;;;;13.01;48.94;101999.03;5070923;28;20391;-86
2023/04/27 08:41:43;;;;;;;8.52;4.97;;;;;;;13.23;48.93;102002.91;5055022;28;20052;-85
2023/04/27 08:44:08;;;;;;;7.90;5.07;;;;;;;13.29;47.47;101999.81;5055926;28;20029;-85
2023/04/27 08:46:35;;;;;;;6.97;4.85;;;;;;;13.41;47.26;101996.31;5056563;28;20043;-85
2023/04/27 08:49:00;;;;;;;10.05;4.78;;;;;;;13.62;45.31;101996.63;5057476;28;20455;-87
2023/04/27 08:51:27;;;;;;;10.40;4.63;;;;;;;13.86;46.27;101996.66;5055171;28;20061;-85
2023/04/27 08:53:55;;;;;;;6.80;4.55;;;;;;;14.07;45.12;101996.06;5052687;28;20021;-85
2023/04/27 08:56:23;;;;;;;6.95;4.57;;;;;;;14.22;44.05;101996.75;5065520;28;20037;-85
2023/04/27 08:58:57;;;;;;;5.55;3.97;;;;;;;14.29;44.49;101989.13;5060471;28;20056;-85
2023/04/27 09:01:24;;;;;;;5.22;3.63;;;;;;;14.39;42.20;101995.53;5059616;28;20033;-85
2023/04/27 09:03:58;;;;;;;8.20;4.00;;;;;;;14.54;43.01;101991.69;5053495;28;20058;-85
2023/04/27 09:06:31;;;;;;;5.63;4.20;;;;;;;14.60;42.24;101995.75;5060150;28;21580;-86
2023/04/27 09:08:56;;;;;;;7.35;4.28;;;;;;;14.77;40.77;101989.13;5053808;28;20502;-85
2023/04/27 09:11:28;;;;;;;7.03;3.25;;;;;;;14.88;41.28;101991.81;5064849;28;20182;-85
2023/04/27 09:13:53;;;;;;;6.20;3.85;;;;;;;15.00;40.86;101984.69;5057776;28;20387;-86
2023/04/27 09:16:23;;;;;;;7.82;4.55;;;;;;;15.28;41.48;101986.06;5057180;28;20041;-86
2023/04/27 09:18:49;;;;;;;8.35;3.97;;;;;;;15.41;38.70;101995.81;5056723;28;20025;-85
2023/04/27 09:21:23;;;;;;;9.13;4.20;;;;;;;15.49;40.67;101988.03;5057672;28;20055;-86
2023/04/27 09:23:48;;;;;;;6.95;3.83;;;;;;;15.65;38.81;101991.16;5055745;28;20092;-85
2023/04/27 09:26:22;;;;;;;6.70;3.80;;;;;;;15.69;39.13;101981.09;5048747;28;20064;-85
2023/04/27 09:28:51;;;;;;;9.00;3.95;;;;;;;15.77;36.98;101980.47;5046308;28;20084;-85
2023/04/27 09:31:17;;;;;;;8.45;4.28;;;;;;;15.77;36.13;101983.16;5053509;28;20155;-85
2023/04/27 09:33:43;;;;;;;4.45;3.25;;;;;;;15.75;34.78;101977.88;5053962;28;20060;-85
2023/04/27 09:36:09;;;;;;;5.35;3.00;;;;;;;15.83;36.37;101974.63;5055334;28;20367;-86
2023/04/27 09:38:34;;;;;;;6.30;3.22;;;;;;;15.97;36.55;101984.22;5055528;28;20036;-85
2023/04/27 09:41:00;;;;;;;4.90;3.60;;;;;;;15.90;34.08;101971.34;5054987;28;20025;-85
2023/04/27 09:43:28;;;;;;;5.45;3.40;;;;;;;15.98;34.50;101977.91;5044336;28;20053;-86
2023/04/27 09:45:54;;;;;;;5.20;3.40;;;;;;;15.89;34.65;101971.47;5057444;28;20456;-85
2023/04/27 09:48:22;;;;;;;5.20;3.40;;;;;;;16.21;35.47;101967.97;5055830;28;20041;-84
2023/04/27 09:50:49;;;;;;;4.40;3.70;;;;;;;16.24;34.44;101967.72;5052024;28;20029;-85
2023/04/27 09:53:18;;;;;;;8.98;3.70;;;;;;;16.38;34.33;101967.41;5056893;28;20049;-85
2023/04/27 09:55:49;;;;;;;;;;;;;;;16.52;39.72;101963.59;5077799;28;20076;-85
2023/04/27 09:58:31;;;;;;;7.20;3.40;;;;;;;16.58;36.68;101968.41;5078814;28;19912;-85
2023/04/27 10:01:06;;;;;;;6.47;3.60;;;;;;;16.70;33.83;101953.09;5070800;28;20021;-86
2023/04/27 10:03:44;;;;;;;7.13;3.45;;;;;;;16.76;34.28;101952.59;5058872;28;20056;-85
2023/04/27 10:06:42;;;;;;;6.10;3.90;;;;;;;17.09;36.60;101965.97;5058084;28;20410;-85
2023/04/27 10:09:09;;;;;;;7.07;3.70;;;;;;;17.07;33.59;101954.50;5046997;28;20040;-85
2023/04/27 10:11:42;;;;;;;5.30;3.97;;;;;;;17.25;33.58;101952.88;5059474;28;20383;-84
2023/04/27 10:14:09;;;;;;;4.35;3.33;;;;;;;17.43;32.97;101961.16;5057972;28;20031;-85
2023/04/27 10:16:46;;;;;;;6.90;3.50;;;;;;;17.61;33.35;101952.47;5051697;28;20029;-85
2023/04/27 10:19:12;;;;;;;4.63;3.63;;;;;;;17.56;32.61;101952.88;5063396;28;20039;-85
2023/04/27 10:21:52;;;;;;;4.93;3.58;;;;;;;17.53;32.80;101964.75;5054395;28;20108;-85
2023/04/27 10:24:18;;;;;;;6.82;3.55;;;;;;;17.13;32.14;101962.88;5060635;28;20029;-85
2023/04/27 10:26:47;;;;;;;5.93;3.47;;;;;;;17.13;32.22;101970.91;5051829;28;20895;-85
2023/04/27 10:29:15;;;;;;;6.78;3.80;;;;;;;17.12;31.65;101971.94;5054862;28;20494;-84
2023/04/27 10:31:46;;;;;;;5.07;4.00;;;;;;;17.18;32.81;101966.00;5054224;28;20060;-85
2023/04/27 10:34:15;;;;;;;9.60;4.10;;;;;;;17.09;31.49;101964.13;5054643;28;20025;-85
2023/04/27 10:36:41;;;;;;;8.90;3.80;;;;;;;17.08;31.98;101970.47;5055735;28;20514;-85
2023/04/27 10:39:24;;;;;;;6.00;4.18;;;;;;;17.14;33.10;101961.91;5054180;28;20036;-85
2023/04/27 10:41:55;;;;;;;8.93;3.78;;;;;;;17.27;34.33;101958.13;5055145;28;20040;-85
2023/04/27 10:44:27;;;;;;;5.18;4.18;;;;;;;17.30;31.54;101949.81;5051290;28;20036;-84
2023/04/27 10:46:54;;;;;;;6.13;3.83;;;;;;;17.42;31.27;101945.19;5049243;28;20435;-84
2023/04/27 10:49:20;;;;;;;6.47;3.78;;;;;;;17.46;30.20;101946.63;5052492;28;20033;-84
2023/04/27 10:51:47;;;;;;;6.03;3.80;;;;;;;17.50;30.16;101930.13;5064985;28;20055;-84
2023/04/27 10:54:13;;;;;;;6.57;3.85;;;;;;;17.50;29.57;101926.56;5062399;28;20033;-84
2023/04/27 10:56:40;;;;;;;6.10;4.53;;;;;;;17.24;31.25;101932.41;5069688;28;20043;-84
2023/04/27 10:59:06;;;;;;;7.18;4.30;;;;;;;17.49;31.24;101932.94;5073918;28;20025;-84
2023/04/27 11:01:31;;;;;;;6.53;4.00;;;;;;;17.63;31.37;101923.63;5061852;28;20069;-84
2023/04/27 11:03:59;;;;;;;7.70;4.07;;;;;;;17.55;29.39;101910.88;5053155;28;20056;-84
2023/04/27 11:06:25;;;;;;;6.35;3.63;;;;;;;17.55;29.31;101917.13;5061356;28;20102;-86
2023/04/27 11:08:50;;;;;;;4.68;3.60;;;;;;;17.63;30.53;101915.59;5065881;28;20487;-85
2023/04/27 11:11:16;;;;;;;4.15;3.75;;;;;;;17.89;31.10;101905.19;5054727;28;20109;-85
2023/04/27 11:13:43;;;;;;;7.78;3.92;;;;;;;18.00;30.57;101906.91;5054572;28;20102;-84
2023/04/27 11:16:08;;;;;;;7.13;4.13;;;;;;;17.93;29.33;101896.69;5052766;28;20024;-85
2023/04/27 11:18:36;;;;;;;4.38;3.97;;;;;;;17.85;29.02;101907.28;5060743;28;20112;-85
2023/04/27 11:21:20;;;;;;;5.13;3.97;;;;;;;18.10;31.15;101905.06;5059942;28;20029;-85
2023/04/27 11:23:46;;;;;;;5.35;4.10;;;;;;;17.94;29.02;101900.25;5059116;28;20052;-84